sensor_id;sensor_type;location;lat;lon;timestamp;P1;durP1;ratioP1;P2;durP2;ratioP2
12910;SDS011;6523;49.758;6.120;2023-03-14T00:00:30;9.37;;;2.27;;
12910;SDS011;6523;49.758;6.120;2023-03-14T00:02:56;4.20;;;1.90;;
12910;SDS011;6523;49.758;6.120;2023-03-14T00:05:22;9.13;;;2.03;;
12910;SDS011;6523;49.758;6.120;2023-03-14T00:07:47;11.10;;;2.53;;
12910;SDS011;6523;49.758;6.120;2023-03-14T00:10:13;7.47;;;2.00;;
12910;SDS011;6523;49.758;6.120;2023-03-14T00:12:40;6.77;;;2.03;;
12910;SDS011;6523;49.758;6.120;2023-03-14T00:15:07;9.87;;;2.50;;
12910;SDS011;6523;49.758;6.120;2023-03-14T00:17:33;8.73;;;1.90;;
12910;SDS011;6523;49.758;6.120;2023-03-14T00:20:00;6.90;;;2.13;;
12910;SDS011;6523;49.758;6.120;2023-03-14T00:22:36;9.83;;;2.27;;
12910;SDS011;6523;49.758;6.120;2023-03-14T00:25:02;5.43;;;2.23;;
12910;SDS011;6523;49.758;6.120;2023-03-14T00:27:29;9.57;;;1.93;;
12910;SDS011;6523;49.758;6.120;2023-03-14T00:29:54;5.93;;;2.20;;
12910;SDS011;6523;49.758;6.120;2023-03-14T00:32:20;7.13;;;2.00;;
12910;SDS011;6523;49.758;6.120;2023-03-14T00:34:46;10.33;;;2.00;;
12910;SDS011;6523;49.758;6.120;2023-03-14T00:37:11;6.83;;;1.93;;
12910;SDS011;6523;49.758;6.120;2023-03-14T00:39:37;9.13;;;2.63;;
12910;SDS011;6523;49.758;6.120;2023-03-14T00:42:02;8.23;;;2.17;;
12910;SDS011;6523;49.758;6.120;2023-03-14T00:44:28;9.57;;;2.13;;
12910;SDS011;6523;49.758;6.120;2023-03-14T00:46:53;6.13;;;2.20;;
12910;SDS011;6523;49.758;6.120;2023-03-14T00:49:19;7.67;;;2.47;;
12910;SDS011;6523;49.758;6.120;2023-03-14T00:51:45;7.80;;;1.93;;
12910;SDS011;6523;49.758;6.120;2023-03-14T00:54:10;8.37;;;2.20;;
12910;SDS011;6523;49.758;6.120;2023-03-14T00:56:36;11.07;;;2.30;;
12910;SDS011;6523;49.758;6.120;2023-03-14T00:59:01;5.67;;;1.77;;
12910;SDS011;6523;49.758;6.120;2023-03-14T01:01:27;5.03;;;1.83;;
12910;SDS011;6523;49.758;6.120;2023-03-14T01:03:53;5.97;;;2.13;;
12910;SDS011;6523;49.758;6.120;2023-03-14T01:06:21;9.80;;;2.20;;
12910;SDS011;6523;49.758;6.120;2023-03-14T01:08:51;11.93;;;2.60;;
12910;SDS011;6523;49.758;6.120;2023-03-14T01:11:19;8.93;;;2.10;;
12910;SDS011;6523;49.758;6.120;2023-03-14T01:13:47;9.77;;;2.20;;
12910;SDS011;6523;49.758;6.120;2023-03-14T01:16:13;11.50;;;2.03;;
12910;SDS011;6523;49.758;6.120;2023-03-14T01:18:40;5.23;;;1.67;;
12910;SDS011;6523;49.758;6.120;2023-03-14T01:23:44;9.47;;;1.80;;
12910;SDS011;6523;49.758;6.120;2023-03-14T01:26:11;8.83;;;2.10;;
12910;SDS011;6523;49.758;6.120;2023-03-14T01:28:38;6.87;;;2.33;;
12910;SDS011;6523;49.758;6.120;2023-03-14T01:31:05;8.57;;;2.63;;
12910;SDS011;6523;49.758;6.120;2023-03-14T01:33:32;8.40;;;1.83;;
12910;SDS011;6523;49.758;6.120;2023-03-14T01:35:58;10.27;;;2.53;;
12910;SDS011;6523;49.758;6.120;2023-03-14T01:38:24;7.77;;;2.43;;
12910;SDS011;6523;49.758;6.120;2023-03-14T01:40:49;5.40;;;1.90;;
12910;SDS011;6523;49.758;6.120;2023-03-14T01:43:16;10.10;;;2.67;;
12910;SDS011;6523;49.758;6.120;2023-03-14T01:48:31;6.87;;;1.80;;
12910;SDS011;6523;49.758;6.120;2023-03-14T01:51:00;6.50;;;1.60;;
12910;SDS011;6523;49.758;6.120;2023-03-14T01:53:27;9.33;;;1.70;;
12910;SDS011;6523;49.758;6.120;2023-03-14T01:55:54;6.30;;;2.10;;
12910;SDS011;6523;49.758;6.120;2023-03-14T01:58:21;5.10;;;1.77;;
12910;SDS011;6523;49.758;6.120;2023-03-14T02:00:49;8.57;;;1.90;;
12910;SDS011;6523;49.758;6.120;2023-03-14T02:03:16;12.10;;;2.13;;
12910;SDS011;6523;49.758;6.120;2023-03-14T02:05:42;5.47;;;2.30;;
12910;SDS011;6523;49.758;6.120;2023-03-14T02:08:19;7.70;;;2.60;;
12910;SDS011;6523;49.758;6.120;2023-03-14T02:10:47;5.03;;;2.20;;
12910;SDS011;6523;49.758;6.120;2023-03-14T02:13:15;5.70;;;2.20;;
12910;SDS011;6523;49.758;6.120;2023-03-14T02:15:43;4.97;;;1.87;;
12910;SDS011;6523;49.758;6.120;2023-03-14T02:18:09;6.80;;;2.23;;
12910;SDS011;6523;49.758;6.120;2023-03-14T02:23:08;6.53;;;1.90;;
12910;SDS011;6523;49.758;6.120;2023-03-14T02:25:46;9.57;;;2.00;;
12910;SDS011;6523;49.758;6.120;2023-03-14T02:28:13;7.60;;;1.70;;
12910;SDS011;6523;49.758;6.120;2023-03-14T02:30:39;7.20;;;1.97;;
12910;SDS011;6523;49.758;6.120;2023-03-14T02:33:09;4.97;;;2.10;;
12910;SDS011;6523;49.758;6.120;2023-03-14T02:35:47;7.40;;;2.20;;
12910;SDS011;6523;49.758;6.120;2023-03-14T02:41:00;6.30;;;2.27;;
12910;SDS011;6523;49.758;6.120;2023-03-14T02:43:26;8.00;;;1.97;;
12910;SDS011;6523;49.758;6.120;2023-03-14T02:45:52;7.20;;;1.83;;
12910;SDS011;6523;49.758;6.120;2023-03-14T02:48:20;7.13;;;1.87;;
12910;SDS011;6523;49.758;6.120;2023-03-14T02:50:50;5.43;;;1.60;;
12910;SDS011;6523;49.758;6.120;2023-03-14T02:53:20;4.00;;;1.80;;
12910;SDS011;6523;49.758;6.120;2023-03-14T02:55:49;2.47;;;1.30;;
12910;SDS011;6523;49.758;6.120;2023-03-14T02:58:15;3.77;;;1.40;;
12910;SDS011;6523;49.758;6.120;2023-03-14T03:00:41;4.20;;;1.27;;
12910;SDS011;6523;49.758;6.120;2023-03-14T03:03:06;4.97;;;1.20;;
12910;SDS011;6523;49.758;6.120;2023-03-14T03:05:32;2.23;;;0.70;;
12910;SDS011;6523;49.758;6.120;2023-03-14T03:07:58;2.73;;;1.00;;
12910;SDS011;6523;49.758;6.120;2023-03-14T03:10:24;3.83;;;1.37;;
12910;SDS011;6523;49.758;6.120;2023-03-14T03:12:49;2.37;;;1.77;;
12910;SDS011;6523;49.758;6.120;2023-03-14T03:15:16;1.40;;;1.30;;
12910;SDS011;6523;49.758;6.120;2023-03-14T03:17:42;1.63;;;1.27;;
12910;SDS011;6523;49.758;6.120;2023-03-14T03:20:08;2.10;;;1.27;;
12910;SDS011;6523;49.758;6.120;2023-03-14T03:22:34;1.97;;;0.93;;
12910;SDS011;6523;49.758;6.120;2023-03-14T03:25:01;3.10;;;1.23;;
12910;SDS011;6523;49.758;6.120;2023-03-14T03:27:26;2.90;;;1.20;;
12910;SDS011;6523;49.758;6.120;2023-03-14T03:29:55;1.80;;;0.80;;
12910;SDS011;6523;49.758;6.120;2023-03-14T03:32:21;2.03;;;0.90;;
12910;SDS011;6523;49.758;6.120;2023-03-14T03:34:46;0.87;;;0.73;;
12910;SDS011;6523;49.758;6.120;2023-03-14T03:37:12;1.00;;;0.90;;
12910;SDS011;6523;49.758;6.120;2023-03-14T03:39:37;1.30;;;0.73;;
12910;SDS011;6523;49.758;6.120;2023-03-14T03:42:03;1.17;;;0.80;;
12910;SDS011;6523;49.758;6.120;2023-03-14T03:44:28;2.23;;;0.80;;
12910;SDS011;6523;49.758;6.120;2023-03-14T03:46:54;5.43;;;1.37;;
12910;SDS011;6523;49.758;6.120;2023-03-14T03:49:19;1.50;;;0.70;;
12910;SDS011;6523;49.758;6.120;2023-03-14T03:51:45;2.73;;;0.70;;
12910;SDS011;6523;49.758;6.120;2023-03-14T03:54:11;1.13;;;0.67;;
12910;SDS011;6523;49.758;6.120;2023-03-14T03:56:36;1.20;;;0.60;;
12910;SDS011;6523;49.758;6.120;2023-03-14T03:59:02;1.37;;;0.50;;
12910;SDS011;6523;49.758;6.120;2023-03-14T04:01:27;0.40;;;0.40;;
12910;SDS011;6523;49.758;6.120;2023-03-14T04:03:53;1.80;;;0.70;;
12910;SDS011;6523;49.758;6.120;2023-03-14T04:06:18;0.40;;;0.40;;
12910;SDS011;6523;49.758;6.120;2023-03-14T04:08:44;1.33;;;0.60;;
12910;SDS011;6523;49.758;6.120;2023-03-14T04:11:10;0.80;;;0.47;;
12910;SDS011;6523;49.758;6.120;2023-03-14T04:13:35;1.03;;;0.70;;
12910;SDS011;6523;49.758;6.120;2023-03-14T04:16:01;0.83;;;0.60;;
12910;SDS011;6523;49.758;6.120;2023-03-14T04:18:26;0.67;;;0.40;;
12910;SDS011;6523;49.758;6.120;2023-03-14T04:20:52;1.20;;;0.50;;
12910;SDS011;6523;49.758;6.120;2023-03-14T04:23:19;1.20;;;0.53;;
12910;SDS011;6523;49.758;6.120;2023-03-14T04:25:49;2.37;;;0.60;;
12910;SDS011;6523;49.758;6.120;2023-03-14T04:28:15;1.83;;;0.50;;
12910;SDS011;6523;49.758;6.120;2023-03-14T04:30:40;1.07;;;0.83;;
12910;SDS011;6523;49.758;6.120;2023-03-14T04:33:06;0.70;;;0.70;;
12910;SDS011;6523;49.758;6.120;2023-03-14T04:35:32;1.33;;;0.90;;
12910;SDS011;6523;49.758;6.120;2023-03-14T04:37:58;1.20;;;0.77;;
12910;SDS011;6523;49.758;6.120;2023-03-14T04:40:24;1.83;;;1.00;;
12910;SDS011;6523;49.758;6.120;2023-03-14T04:42:50;1.60;;;0.90;;
12910;SDS011;6523;49.758;6.120;2023-03-14T04:45:15;1.67;;;0.70;;
12910;SDS011;6523;49.758;6.120;2023-03-14T04:47:41;1.80;;;0.73;;
12910;SDS011;6523;49.758;6.120;2023-03-14T04:50:07;2.23;;;0.83;;
12910;SDS011;6523;49.758;6.120;2023-03-14T04:52:34;4.27;;;1.07;;
12910;SDS011;6523;49.758;6.120;2023-03-14T04:54:59;2.40;;;1.00;;
12910;SDS011;6523;49.758;6.120;2023-03-14T04:57:25;3.63;;;1.03;;
12910;SDS011;6523;49.758;6.120;2023-03-14T04:59:50;2.53;;;0.70;;
12910;SDS011;6523;49.758;6.120;2023-03-14T05:02:16;4.43;;;0.80;;
12910;SDS011;6523;49.758;6.120;2023-03-14T05:04:41;4.03;;;1.20;;
12910;SDS011;6523;49.758;6.120;2023-03-14T05:07:07;3.37;;;0.97;;
12910;SDS011;6523;49.758;6.120;2023-03-14T05:09:32;2.40;;;0.77;;
12910;SDS011;6523;49.758;6.120;2023-03-14T05:11:58;1.67;;;0.90;;
12910;SDS011;6523;49.758;6.120;2023-03-14T05:14:24;2.57;;;0.87;;
12910;SDS011;6523;49.758;6.120;2023-03-14T05:16:49;4.73;;;1.20;;
12910;SDS011;6523;49.758;6.120;2023-03-14T05:19:15;2.57;;;1.33;;
12910;SDS011;6523;49.758;6.120;2023-03-14T05:21:40;3.17;;;1.10;;
12910;SDS011;6523;49.758;6.120;2023-03-14T05:24:06;2.03;;;1.30;;
12910;SDS011;6523;49.758;6.120;2023-03-14T05:26:32;2.53;;;1.20;;
12910;SDS011;6523;49.758;6.120;2023-03-14T05:28:57;1.00;;;0.80;;
12910;SDS011;6523;49.758;6.120;2023-03-14T05:31:23;3.30;;;1.20;;
12910;SDS011;6523;49.758;6.120;2023-03-14T05:33:48;2.27;;;1.00;;
12910;SDS011;6523;49.758;6.120;2023-03-14T05:36:14;3.00;;;1.40;;
12910;SDS011;6523;49.758;6.120;2023-03-14T05:38:39;2.17;;;1.10;;
12910;SDS011;6523;49.758;6.120;2023-03-14T05:41:05;3.73;;;1.10;;
12910;SDS011;6523;49.758;6.120;2023-03-14T05:43:31;2.73;;;1.33;;
12910;SDS011;6523;49.758;6.120;2023-03-14T05:45:56;2.87;;;1.20;;
12910;SDS011;6523;49.758;6.120;2023-03-14T05:48:22;2.30;;;0.90;;
12910;SDS011;6523;49.758;6.120;2023-03-14T05:50:48;2.90;;;1.10;;
12910;SDS011;6523;49.758;6.120;2023-03-14T05:53:19;1.00;;;0.90;;
12910;SDS011;6523;49.758;6.120;2023-03-14T05:55:44;2.67;;;0.93;;
12910;SDS011;6523;49.758;6.120;2023-03-14T05:58:10;2.30;;;0.70;;
12910;SDS011;6523;49.758;6.120;2023-03-14T06:00:35;2.77;;;0.90;;
12910;SDS011;6523;49.758;6.120;2023-03-14T06:03:01;2.53;;;0.70;;
12910;SDS011;6523;49.758;6.120;2023-03-14T06:05:26;1.57;;;0.60;;
12910;SDS011;6523;49.758;6.120;2023-03-14T06:07:52;1.00;;;0.60;;
12910;SDS011;6523;49.758;6.120;2023-03-14T06:10:18;3.23;;;0.80;;
12910;SDS011;6523;49.758;6.120;2023-03-14T06:12:43;1.80;;;0.60;;
12910;SDS011;6523;49.758;6.120;2023-03-14T06:15:09;1.00;;;0.60;;
12910;SDS011;6523;49.758;6.120;2023-03-14T06:17:35;2.37;;;0.43;;
12910;SDS011;6523;49.758;6.120;2023-03-14T06:20:00;3.07;;;0.50;;
12910;SDS011;6523;49.758;6.120;2023-03-14T06:22:26;0.83;;;0.70;;
12910;SDS011;6523;49.758;6.120;2023-03-14T06:24:51;1.77;;;0.57;;
12910;SDS011;6523;49.758;6.120;2023-03-14T06:27:17;2.07;;;0.50;;
12910;SDS011;6523;49.758;6.120;2023-03-14T06:29:42;2.50;;;0.50;;
12910;SDS011;6523;49.758;6.120;2023-03-14T06:32:08;2.80;;;0.70;;
12910;SDS011;6523;49.758;6.120;2023-03-14T06:34:34;1.07;;;0.40;;
12910;SDS011;6523;49.758;6.120;2023-03-14T06:36:59;0.20;;;0.20;;
12910;SDS011;6523;49.758;6.120;2023-03-14T06:39:25;0.53;;;0.30;;
12910;SDS011;6523;49.758;6.120;2023-03-14T06:41:50;2.07;;;0.63;;
12910;SDS011;6523;49.758;6.120;2023-03-14T06:44:16;0.80;;;0.33;;
12910;SDS011;6523;49.758;6.120;2023-03-14T06:46:41;0.33;;;0.33;;
12910;SDS011;6523;49.758;6.120;2023-03-14T06:49:07;2.30;;;0.50;;
12910;SDS011;6523;49.758;6.120;2023-03-14T06:51:33;1.07;;;0.30;;
12910;SDS011;6523;49.758;6.120;2023-03-14T06:53:59;1.23;;;0.50;;
12910;SDS011;6523;49.758;6.120;2023-03-14T06:56:25;0.77;;;0.20;;
12910;SDS011;6523;49.758;6.120;2023-03-14T06:58:50;2.33;;;0.60;;
12910;SDS011;6523;49.758;6.120;2023-03-14T07:01:23;1.13;;;0.33;;
12910;SDS011;6523;49.758;6.120;2023-03-14T07:03:50;3.17;;;0.53;;
12910;SDS011;6523;49.758;6.120;2023-03-14T07:06:16;1.00;;;0.43;;
12910;SDS011;6523;49.758;6.120;2023-03-14T07:08:41;0.77;;;0.40;;
12910;SDS011;6523;49.758;6.120;2023-03-14T07:11:07;1.23;;;0.50;;
12910;SDS011;6523;49.758;6.120;2023-03-14T07:13:34;1.23;;;0.70;;
12910;SDS011;6523;49.758;6.120;2023-03-14T07:16:00;1.43;;;0.40;;
12910;SDS011;6523;49.758;6.120;2023-03-14T07:18:26;0.60;;;0.50;;
12910;SDS011;6523;49.758;6.120;2023-03-14T07:20:51;1.60;;;0.60;;
12910;SDS011;6523;49.758;6.120;2023-03-14T07:23:17;3.00;;;0.53;;
12910;SDS011;6523;49.758;6.120;2023-03-14T07:25:42;0.40;;;0.40;;
12910;SDS011;6523;49.758;6.120;2023-03-14T07:28:08;0.40;;;0.40;;
12910;SDS011;6523;49.758;6.120;2023-03-14T07:30:33;1.57;;;0.50;;
12910;SDS011;6523;49.758;6.120;2023-03-14T07:32:59;2.27;;;0.50;;
12910;SDS011;6523;49.758;6.120;2023-03-14T07:35:24;1.90;;;0.37;;
12910;SDS011;6523;49.758;6.120;2023-03-14T07:37:50;0.30;;;0.30;;
12910;SDS011;6523;49.758;6.120;2023-03-14T07:40:15;1.07;;;0.30;;
12910;SDS011;6523;49.758;6.120;2023-03-14T07:42:41;0.53;;;0.33;;
12910;SDS011;6523;49.758;6.120;2023-03-14T07:45:08;1.03;;;0.30;;
12910;SDS011;6523;49.758;6.120;2023-03-14T07:47:35;0.70;;;0.33;;
12910;SDS011;6523;49.758;6.120;2023-03-14T07:50:00;0.97;;;0.33;;
12910;SDS011;6523;49.758;6.120;2023-03-14T07:52:26;0.50;;;0.50;;
12910;SDS011;6523;49.758;6.120;2023-03-14T07:54:52;0.67;;;0.20;;
12910;SDS011;6523;49.758;6.120;2023-03-14T07:57:18;0.83;;;0.30;;
12910;SDS011;6523;49.758;6.120;2023-03-14T07:59:43;0.20;;;0.20;;
12910;SDS011;6523;49.758;6.120;2023-03-14T08:02:12;1.80;;;0.40;;
12910;SDS011;6523;49.758;6.120;2023-03-14T08:04:38;0.43;;;0.20;;
12910;SDS011;6523;49.758;6.120;2023-03-14T08:07:05;2.00;;;0.40;;
12910;SDS011;6523;49.758;6.120;2023-03-14T08:09:31;0.80;;;0.20;;
12910;SDS011;6523;49.758;6.120;2023-03-14T08:11:57;0.30;;;0.30;;
12910;SDS011;6523;49.758;6.120;2023-03-14T08:14:22;0.73;;;0.47;;
12910;SDS011;6523;49.758;6.120;2023-03-14T08:16:51;0.73;;;0.30;;
12910;SDS011;6523;49.758;6.120;2023-03-14T08:19:17;0.43;;;0.40;;
12910;SDS011;6523;49.758;6.120;2023-03-14T08:21:43;1.13;;;0.50;;
12910;SDS011;6523;49.758;6.120;2023-03-14T08:24:08;2.80;;;0.50;;
12910;SDS011;6523;49.758;6.120;2023-03-14T08:26:34;0.40;;;0.37;;
12910;SDS011;6523;49.758;6.120;2023-03-14T08:28:59;0.57;;;0.57;;
12910;SDS011;6523;49.758;6.120;2023-03-14T08:31:25;1.40;;;0.60;;
12910;SDS011;6523;49.758;6.120;2023-03-14T08:33:51;1.27;;;0.33;;
12910;SDS011;6523;49.758;6.120;2023-03-14T08:36:18;0.30;;;0.30;;
12910;SDS011;6523;49.758;6.120;2023-03-14T08:38:44;0.10;;;0.10;;
12910;SDS011;6523;49.758;6.120;2023-03-14T08:41:10;0.30;;;0.30;;
12910;SDS011;6523;49.758;6.120;2023-03-14T08:43:36;0.10;;;0.10;;
12910;SDS011;6523;49.758;6.120;2023-03-14T08:46:02;1.20;;;0.20;;
12910;SDS011;6523;49.758;6.120;2023-03-14T08:48:28;0.53;;;0.43;;
12910;SDS011;6523;49.758;6.120;2023-03-14T08:50:55;0.30;;;0.20;;
12910;SDS011;6523;49.758;6.120;2023-03-14T08:53:50;1.13;;;0.30;;
12910;SDS011;6523;49.758;6.120;2023-03-14T08:56:16;0.30;;;0.30;;
12910;SDS011;6523;49.758;6.120;2023-03-14T08:58:41;1.13;;;0.33;;
12910;SDS011;6523;49.758;6.120;2023-03-14T09:01:08;0.20;;;0.20;;
12910;SDS011;6523;49.758;6.120;2023-03-14T09:03:36;0.43;;;0.20;;
12910;SDS011;6523;49.758;6.120;2023-03-14T09:06:06;0.50;;;0.20;;
12910;SDS011;6523;49.758;6.120;2023-03-14T09:08:33;0.20;;;0.20;;
12910;SDS011;6523;49.758;6.120;2023-03-14T09:10:59;0.30;;;0.30;;
12910;SDS011;6523;49.758;6.120;2023-03-14T09:13:25;0.57;;;0.30;;
12910;SDS011;6523;49.758;6.120;2023-03-14T09:15:54;1.10;;;0.40;;
12910;SDS011;6523;49.758;6.120;2023-03-14T09:18:20;0.27;;;0.10;;
12910;SDS011;6523;49.758;6.120;2023-03-14T09:20:46;0.10;;;0.10;;
12910;SDS011;6523;49.758;6.120;2023-03-14T09:23:12;0.10;;;0.10;;
12910;SDS011;6523;49.758;6.120;2023-03-14T09:25:39;0.10;;;0.10;;
12910;SDS011;6523;49.758;6.120;2023-03-14T09:28:04;0.20;;;0.20;;
12910;SDS011;6523;49.758;6.120;2023-03-14T09:30:30;0.30;;;0.30;;
12910;SDS011;6523;49.758;6.120;2023-03-14T09:32:56;0.30;;;0.30;;
12910;SDS011;6523;49.758;6.120;2023-03-14T09:35:22;0.30;;;0.30;;
12910;SDS011;6523;49.758;6.120;2023-03-14T09:37:48;0.20;;;0.20;;
12910;SDS011;6523;49.758;6.120;2023-03-14T09:40:17;0.17;;;0.17;;
12910;SDS011;6523;49.758;6.120;2023-03-14T09:42:44;0.33;;;0.33;;
12910;SDS011;6523;49.758;6.120;2023-03-14T09:45:26;0.33;;;0.30;;
12910;SDS011;6523;49.758;6.120;2023-03-14T09:47:54;0.40;;;0.30;;
12910;SDS011;6523;49.758;6.120;2023-03-14T09:50:22;0.50;;;0.50;;
12910;SDS011;6523;49.758;6.120;2023-03-14T09:52:49;0.40;;;0.40;;
12910;SDS011;6523;49.758;6.120;2023-03-14T09:55:18;0.77;;;0.60;;
12910;SDS011;6523;49.758;6.120;2023-03-14T09:57:46;0.40;;;0.40;;
12910;SDS011;6523;49.758;6.120;2023-03-14T10:00:15;0.50;;;0.50;;
12910;SDS011;6523;49.758;6.120;2023-03-14T10:02:53;0.83;;;0.37;;
12910;SDS011;6523;49.758;6.120;2023-03-14T10:05:44;0.40;;;0.40;;
12910;SDS011;6523;49.758;6.120;2023-03-14T10:08:11;0.47;;;0.47;;
12910;SDS011;6523;49.758;6.120;2023-03-14T10:10:37;0.63;;;0.50;;
12910;SDS011;6523;49.758;6.120;2023-03-14T10:15:35;0.53;;;0.53;;
12910;SDS011;6523;49.758;6.120;2023-03-14T10:18:02;1.00;;;1.00;;
12910;SDS011;6523;49.758;6.120;2023-03-14T10:20:37;1.53;;;1.07;;
12910;SDS011;6523;49.758;6.120;2023-03-14T10:25:37;1.10;;;1.00;;
12910;SDS011;6523;49.758;6.120;2023-03-14T10:28:23;2.60;;;1.50;;
12910;SDS011;6523;49.758;6.120;2023-03-14T10:30:54;1.77;;;1.67;;
12910;SDS011;6523;49.758;6.120;2023-03-14T10:35:52;2.03;;;1.83;;
12910;SDS011;6523;49.758;6.120;2023-03-14T10:38:22;1.57;;;1.47;;
12910;SDS011;6523;49.758;6.120;2023-03-14T10:40:50;2.97;;;2.00;;
12910;SDS011;6523;49.758;6.120;2023-03-14T10:43:19;3.00;;;1.60;;
12910;SDS011;6523;49.758;6.120;2023-03-14T10:46:02;1.83;;;1.73;;
12910;SDS011;6523;49.758;6.120;2023-03-14T10:48:34;2.03;;;1.33;;
12910;SDS011;6523;49.758;6.120;2023-03-14T10:51:06;1.30;;;1.20;;
12910;SDS011;6523;49.758;6.120;2023-03-14T10:56:12;1.07;;;1.07;;
12910;SDS011;6523;49.758;6.120;2023-03-14T10:58:48;1.30;;;1.10;;
12910;SDS011;6523;49.758;6.120;2023-03-14T11:07:02;2.17;;;1.07;;
12910;SDS011;6523;49.758;6.120;2023-03-14T11:09:36;5.67;;;2.07;;
12910;SDS011;6523;49.758;6.120;2023-03-14T11:14:54;3.17;;;1.17;;
12910;SDS011;6523;49.758;6.120;2023-03-14T11:22:57;1.30;;;0.90;;
12910;SDS011;6523;49.758;6.120;2023-03-14T11:28:07;1.77;;;1.33;;
12910;SDS011;6523;49.758;6.120;2023-03-14T11:33:15;1.23;;;0.70;;
12910;SDS011;6523;49.758;6.120;2023-03-14T11:35:45;1.50;;;0.70;;
12910;SDS011;6523;49.758;6.120;2023-03-14T11:40:51;0.73;;;0.60;;
12910;SDS011;6523;49.758;6.120;2023-03-14T11:43:24;1.27;;;0.97;;
12910;SDS011;6523;49.758;6.120;2023-03-14T11:46:04;1.47;;;0.70;;
12910;SDS011;6523;49.758;6.120;2023-03-14T11:51:21;1.10;;;0.60;;
12910;SDS011;6523;49.758;6.120;2023-03-14T11:53:54;1.30;;;0.50;;
12910;SDS011;6523;49.758;6.120;2023-03-14T11:56:48;0.90;;;0.50;;
12910;SDS011;6523;49.758;6.120;2023-03-14T12:02:20;1.27;;;0.50;;
12910;SDS011;6523;49.758;6.120;2023-03-14T12:07:35;1.03;;;0.80;;
12910;SDS011;6523;49.758;6.120;2023-03-14T12:10:13;0.53;;;0.53;;
12910;SDS011;6523;49.758;6.120;2023-03-14T12:12:39;0.67;;;0.60;;
12910;SDS011;6523;49.758;6.120;2023-03-14T12:15:05;2.80;;;0.67;;
12910;SDS011;6523;49.758;6.120;2023-03-14T12:17:42;1.43;;;0.70;;
12910;SDS011;6523;49.758;6.120;2023-03-14T12:22:43;0.93;;;0.50;;
12910;SDS011;6523;49.758;6.120;2023-03-14T12:25:15;2.40;;;0.70;;
12910;SDS011;6523;49.758;6.120;2023-03-14T12:33:27;0.50;;;0.50;;
12910;SDS011;6523;49.758;6.120;2023-03-14T12:35:52;0.47;;;0.47;;
12910;SDS011;6523;49.758;6.120;2023-03-14T12:38:29;1.00;;;0.50;;
12910;SDS011;6523;49.758;6.120;2023-03-14T12:41:11;0.70;;;0.70;;
12910;SDS011;6523;49.758;6.120;2023-03-14T12:43:39;1.20;;;0.60;;
12910;SDS011;6523;49.758;6.120;2023-03-14T12:48:47;1.13;;;0.50;;
12910;SDS011;6523;49.758;6.120;2023-03-14T12:51:37;2.40;;;1.07;;
12910;SDS011;6523;49.758;6.120;2023-03-14T12:59:51;1.07;;;0.60;;
12910;SDS011;6523;49.758;6.120;2023-03-14T13:08:11;2.47;;;0.70;;
12910;SDS011;6523;49.758;6.120;2023-03-14T13:10:28;0.60;;;0.40;;
12910;SDS011;6523;49.758;6.120;2023-03-14T13:13:20;3.07;;;0.63;;
12910;SDS011;6523;49.758;6.120;2023-03-14T13:15:48;2.77;;;0.80;;
12910;SDS011;6523;49.758;6.120;2023-03-14T13:18:29;1.93;;;0.73;;
12910;SDS011;6523;49.758;6.120;2023-03-14T13:21:16;1.53;;;0.40;;
12910;SDS011;6523;49.758;6.120;2023-03-14T13:24:00;2.37;;;0.60;;
12910;SDS011;6523;49.758;6.120;2023-03-14T13:26:40;2.50;;;0.63;;
12910;SDS011;6523;49.758;6.120;2023-03-14T13:29:24;1.50;;;0.67;;
12910;SDS011;6523;49.758;6.120;2023-03-14T13:31:52;3.83;;;0.80;;
12910;SDS011;6523;49.758;6.120;2023-03-14T13:34:24;2.00;;;0.67;;
12910;SDS011;6523;49.758;6.120;2023-03-14T13:36:53;2.97;;;0.97;;
12910;SDS011;6523;49.758;6.120;2023-03-14T13:39:20;3.77;;;1.00;;
12910;SDS011;6523;49.758;6.120;2023-03-14T13:41:49;1.87;;;0.60;;
12910;SDS011;6523;49.758;6.120;2023-03-14T13:44:26;2.10;;;0.90;;
12910;SDS011;6523;49.758;6.120;2023-03-14T13:46:58;3.03;;;0.60;;
12910;SDS011;6523;49.758;6.120;2023-03-14T13:49:25;1.93;;;0.77;;
12910;SDS011;6523;49.758;6.120;2023-03-14T13:51:53;3.63;;;1.17;;
12910;SDS011;6523;49.758;6.120;2023-03-14T13:54:21;1.37;;;0.90;;
12910;SDS011;6523;49.758;6.120;2023-03-14T13:56:47;2.00;;;0.77;;
12910;SDS011;6523;49.758;6.120;2023-03-14T13:59:23;1.23;;;0.70;;
12910;SDS011;6523;49.758;6.120;2023-03-14T14:01:53;2.80;;;0.87;;
12910;SDS011;6523;49.758;6.120;2023-03-14T14:04:20;3.03;;;0.97;;
12910;SDS011;6523;49.758;6.120;2023-03-14T14:06:49;1.37;;;0.70;;
12910;SDS011;6523;49.758;6.120;2023-03-14T14:09:29;2.30;;;0.77;;
12910;SDS011;6523;49.758;6.120;2023-03-14T14:12:05;2.60;;;0.80;;
12910;SDS011;6523;49.758;6.120;2023-03-14T14:14:36;3.27;;;0.83;;
12910;SDS011;6523;49.758;6.120;2023-03-14T14:17:16;1.63;;;0.70;;
12910;SDS011;6523;49.758;6.120;2023-03-14T14:19:45;2.07;;;0.70;;
12910;SDS011;6523;49.758;6.120;2023-03-14T14:22:12;1.87;;;0.70;;
12910;SDS011;6523;49.758;6.120;2023-03-14T14:24:38;2.50;;;0.90;;
12910;SDS011;6523;49.758;6.120;2023-03-14T14:27:14;1.77;;;0.93;;
12910;SDS011;6523;49.758;6.120;2023-03-14T14:29:42;1.90;;;0.70;;
12910;SDS011;6523;49.758;6.120;2023-03-14T14:34:40;2.20;;;0.50;;
12910;SDS011;6523;49.758;6.120;2023-03-14T14:37:20;1.30;;;0.70;;
12910;SDS011;6523;49.758;6.120;2023-03-14T14:39:51;1.83;;;0.80;;
12910;SDS011;6523;49.758;6.120;2023-03-14T14:42:20;2.30;;;0.63;;
12910;SDS011;6523;49.758;6.120;2023-03-14T14:44:50;1.33;;;0.73;;
12910;SDS011;6523;49.758;6.120;2023-03-14T14:47:20;2.83;;;0.63;;
12910;SDS011;6523;49.758;6.120;2023-03-14T14:49:48;2.70;;;0.80;;
12910;SDS011;6523;49.758;6.120;2023-03-14T14:52:19;3.03;;;0.53;;
12910;SDS011;6523;49.758;6.120;2023-03-14T14:54:53;1.60;;;0.70;;
12910;SDS011;6523;49.758;6.120;2023-03-14T14:57:41;2.63;;;0.80;;
12910;SDS011;6523;49.758;6.120;2023-03-14T15:00:20;2.40;;;0.87;;
12910;SDS011;6523;49.758;6.120;2023-03-14T15:02:47;2.37;;;0.90;;
12910;SDS011;6523;49.758;6.120;2023-03-14T15:05:16;1.53;;;0.60;;
12910;SDS011;6523;49.758;6.120;2023-03-14T15:07:47;1.43;;;0.50;;
12910;SDS011;6523;49.758;6.120;2023-03-14T15:10:13;1.70;;;0.70;;
12910;SDS011;6523;49.758;6.120;2023-03-14T15:12:41;2.57;;;0.80;;
12910;SDS011;6523;49.758;6.120;2023-03-14T15:15:07;1.40;;;0.70;;
12910;SDS011;6523;49.758;6.120;2023-03-14T15:17:33;0.93;;;0.53;;
12910;SDS011;6523;49.758;6.120;2023-03-14T15:20:01;2.60;;;0.70;;
12910;SDS011;6523;49.758;6.120;2023-03-14T15:22:29;1.83;;;0.60;;
12910;SDS011;6523;49.758;6.120;2023-03-14T15:24:55;1.03;;;0.70;;
12910;SDS011;6523;49.758;6.120;2023-03-14T15:27:20;0.40;;;0.40;;
12910;SDS011;6523;49.758;6.120;2023-03-14T15:29:46;1.37;;;0.53;;
12910;SDS011;6523;49.758;6.120;2023-03-14T15:32:13;1.03;;;0.60;;
12910;SDS011;6523;49.758;6.120;2023-03-14T15:34:40;1.97;;;0.90;;
12910;SDS011;6523;49.758;6.120;2023-03-14T15:37:13;2.13;;;0.60;;
12910;SDS011;6523;49.758;6.120;2023-03-14T15:39:40;2.80;;;0.83;;
12910;SDS011;6523;49.758;6.120;2023-03-14T15:42:07;2.67;;;0.70;;
12910;SDS011;6523;49.758;6.120;2023-03-14T15:44:32;1.40;;;0.80;;
12910;SDS011;6523;49.758;6.120;2023-03-14T15:46:58;1.63;;;0.40;;
12910;SDS011;6523;49.758;6.120;2023-03-14T15:49:24;0.60;;;0.60;;
12910;SDS011;6523;49.758;6.120;2023-03-14T15:51:49;1.77;;;0.70;;
12910;SDS011;6523;49.758;6.120;2023-03-14T15:54:15;2.50;;;0.70;;
12910;SDS011;6523;49.758;6.120;2023-03-14T15:56:40;1.80;;;0.97;;
12910;SDS011;6523;49.758;6.120;2023-03-14T15:59:06;0.73;;;0.50;;
12910;SDS011;6523;49.758;6.120;2023-03-14T16:01:31;1.43;;;0.60;;
12910;SDS011;6523;49.758;6.120;2023-03-14T16:03:57;2.70;;;0.87;;
12910;SDS011;6523;49.758;6.120;2023-03-14T16:06:22;3.97;;;0.87;;
12910;SDS011;6523;49.758;6.120;2023-03-14T16:08:48;1.80;;;0.80;;
12910;SDS011;6523;49.758;6.120;2023-03-14T16:11:14;2.40;;;0.90;;
12910;SDS011;6523;49.758;6.120;2023-03-14T16:13:42;1.90;;;0.83;;
12910;SDS011;6523;49.758;6.120;2023-03-14T16:16:08;5.07;;;1.10;;
12910;SDS011;6523;49.758;6.120;2023-03-14T16:18:34;2.70;;;0.70;;
12910;SDS011;6523;49.758;6.120;2023-03-14T16:21:02;2.60;;;0.70;;